Time;durP1;ratioP1;P1;durP2;ratioP2;P2;SDS_P1;SDS_P2;PMS_P1;PMS_P2;Temp;Humidity;BMP_temperature;BMP_pressure;BME280_temperature;BME280_humidity;BME280_pressure;Samples;Min_cycle;Max_cycle;Signal;HPM_P1;HPM_P2
2023/09/29 00:00:37;;;;;;;19.13;8.73;;;;;;;;;;2084163;28;20029;-76
2023/09/29 00:01:58;;;;;;;18.42;8.75;;;;;;;;;;2091646;28;20056;-76
2023/09/29 00:03:19;;;;;;;23.38;8.57;;;;;;;;;;2083728;28;20403;-76
2023/09/29 00:04:40;;;;;;;23.98;10.18;;;;;;;;;;2093083;28;20025;-76
2023/09/29 00:06:03;;;;;;;18.60;9.52;;;;;;;;;;2088310;28;20048;-76
2023/09/29 00:07:24;;;;;;;19.35;9.48;;;;;;;;;;2093632;28;20020;-76
2023/09/29 00:08:45;;;;;;;20.40;9.40;;;;;;;;;;2085415;28;20084;-76
2023/09/29 00:10:10;;;;;;;25.13;8.88;;;;;;;;;;2083232;28;20029;-77
2023/09/29 00:11:31;;;;;;;16.50;8.45;;;;;;;;;;2092273;28;20066;-76
2023/09/29 00:12:52;;;;;;;22.83;8.07;;;;;;;;;;2085178;28;20156;-76
2023/09/29 00:14:13;;;;;;;19.33;8.55;;;;;;;;;;2089083;28;20044;-76
2023/09/29 00:15:34;;;;;;;20.93;7.97;;;;;;;;;;2095555;28;20024;-76
2023/09/29 00:16:55;;;;;;;17.33;8.43;;;;;;;;;;2094306;28;20559;-76
2023/09/29 00:18:16;;;;;;;25.75;9.63;;;;;;;;;;2084280;28;20463;-76
2023/09/29 00:19:37;;;;;;;24.48;9.25;;;;;;;;;;2089858;28;20029;-77
2023/09/29 00:20:58;;;;;;;23.10;9.60;;;;;;;;;;2095451;28;20037;-76
2023/09/29 00:22:19;;;;;;;19.90;9.15;;;;;;;;;;2086613;28;20670;-76
2023/09/29 00:23:39;;;;;;;22.13;9.13;;;;;;;;;;2082178;28;20164;-76
2023/09/29 00:25:00;;;;;;;14.38;8.23;;;;;;;;;;2085308;28;20025;-76
2023/09/29 00:26:21;;;;;;;14.90;8.82;;;;;;;;;;2091661;28;20032;-76
2023/09/29 00:27:42;;;;;;;22.35;9.25;;;;;;;;;;2087650;28;20170;-76
2023/09/29 00:29:03;;;;;;;18.55;9.15;;;;;;;;;;2092269;28;20102;-76
2023/09/29 00:30:24;;;;;;;18.55;8.73;;;;;;;;;;2087817;28;20033;-76
2023/09/29 00:31:45;;;;;;;20.98;10.38;;;;;;;;;;2080990;28;20037;-76
2023/09/29 00:33:06;;;;;;;20.90;8.20;;;;;;;;;;2083042;28;20381;-76
2023/09/29 00:34:28;;;;;;;20.35;9.02;;;;;;;;;;2080222;28;20094;-75
2023/09/29 00:35:49;;;;;;;20.73;9.02;;;;;;;;;;2091649;28;20044;-76
2023/09/29 00:37:10;;;;;;;19.58;8.82;;;;;;;;;;2093476;28;20083;-76
2023/09/29 00:38:31;;;;;;;18.63;8.43;;;;;;;;;;2093648;28;20475;-77
2023/09/29 00:39:55;;;;;;;21.88;9.45;;;;;;;;;;2093414;28;20070;-76
2023/09/29 00:41:17;;;;;;;18.13;8.93;;;;;;;;;;2101922;28;20044;-76
2023/09/29 00:42:39;;;;;;;18.90;9.52;;;;;;;;;;2086614;28;20029;-77
2023/09/29 00:44:00;;;;;;;16.33;8.15;;;;;;;;;;2092902;28;20087;-76
2023/09/29 00:45:22;;;;;;;18.10;8.20;;;;;;;;;;2098242;28;20025;-77
2023/09/29 00:46:43;;;;;;;16.52;7.57;;;;;;;;;;2088331;28;20029;-76
2023/09/29 00:48:07;;;;;;;19.98;7.82;;;;;;;;;;2088584;28;20079;-76
2023/09/29 00:49:29;;;;;;;18.30;8.07;;;;;;;;;;2089755;28;20036;-76
2023/09/29 00:50:50;;;;;;;18.27;8.55;;;;;;;;;;2093729;28;20032;-76
2023/09/29 00:52:12;;;;;;;19.73;8.30;;;;;;;;;;2096542;28;20028;-76
2023/09/29 00:53:34;;;;;;;18.35;9.25;;;;;;;;;;2096371;28;20033;-76
2023/09/29 00:54:56;;;;;;;20.50;8.43;;;;;;;;;;2097095;28;20028;-76
2023/09/29 00:56:17;;;;;;;21.13;8.80;;;;;;;;;;2088069;28;20056;-76
2023/09/29 00:57:39;;;;;;;16.58;8.40;;;;;;;;;;2092656;28;20033;-77
2023/09/29 00:59:01;;;;;;;15.45;7.60;;;;;;;;;;2083003;28;20033;-77
2023/09/29 01:00:29;;;;;;;18.30;8.02;;;;;;;;;;2089534;28;20033;-76
2023/09/29 01:01:51;;;;;;;16.27;7.93;;;;;;;;;;2095329;28;20031;-77
2023/09/29 01:03:14;;;;;;;15.93;8.13;;;;;;;;;;2089779;28;20037;-76
2023/09/29 01:04:35;;;;;;;17.38;8.60;;;;;;;;;;2087551;28;20049;-77
2023/09/29 01:05:56;;;;;;;16.85;8.48;;;;;;;;;;2093836;28;20035;-77
2023/09/29 01:07:17;;;;;;;21.42;7.43;;;;;;;;;;2092311;28;20159;-77
2023/09/29 01:08:39;;;;;;;19.15;6.93;;;;;;;;;;2087317;28;20139;-77
2023/09/29 01:10:01;;;;;;;17.55;8.30;;;;;;;;;;2088966;28;20025;-76
2023/09/29 01:11:21;;;;;;;14.80;7.70;;;;;;;;;;2089783;28;20021;-77
2023/09/29 01:12:43;;;;;;;17.42;8.50;;;;;;;;;;2089194;28;20079;-76
2023/09/29 01:14:04;;;;;;;12.35;7.28;;;;;;;;;;2078152;28;20026;-77
2023/09/29 01:15:25;;;;;;;17.13;7.93;;;;;;;;;;2083257;28;20112;-77
2023/09/29 01:16:46;;;;;;;14.05;8.32;;;;;;;;;;2082412;28;20086;-77
2023/09/29 01:18:08;;;;;;;15.95;8.20;;;;;;;;;;2092327;28;20082;-77
2023/09/29 01:19:31;;;;;;;;;;;;;;;;;;2101880;28;20106;-77
2023/09/29 01:20:53;;;;;;;15.20;7.60;;;;;;;;;;2086388;28;19963;-77
2023/09/29 01:22:14;;;;;;;19.25;8.45;;;;;;;;;;2085260;28;20033;-77
2023/09/29 01:23:35;;;;;;;15.43;7.72;;;;;;;;;;2090544;28;20029;-77
2023/09/29 01:24:58;;;;;;;22.15;8.30;;;;;;;;;;2083238;28;20045;-77
2023/09/29 01:26:19;;;;;;;14.70;7.97;;;;;;;;;;2090993;28;20036;-77
2023/09/29 01:27:40;;;;;;;19.60;8.55;;;;;;;;;;2095487;28;20041;-77
2023/09/29 01:29:01;;;;;;;13.77;8.10;;;;;;;;;;2092816;28;20032;-77
2023/09/29 01:30:22;;;;;;;12.75;7.88;;;;;;;;;;2085353;28;20033;-77
2023/09/29 01:31:44;;;;;;;17.48;9.00;;;;;;;;;;2080810;28;20025;-77
2023/09/29 01:33:05;;;;;;;13.80;8.43;;;;;;;;;;2088788;28;20033;-77
2023/09/29 01:34:29;;;;;;;13.50;8.38;;;;;;;;;;2093371;28;20062;-77
2023/09/29 01:35:51;;;;;;;14.13;8.23;;;;;;;;;;2091785;28;20045;-77
2023/09/29 01:37:11;;;;;;;14.63;8.05;;;;;;;;;;2092269;28;20492;-77
2023/09/29 01:38:32;;;;;;;15.05;8.77;;;;;;;;;;2086373;28;20033;-76
2023/09/29 01:39:53;;;;;;;13.95;7.97;;;;;;;;;;2093328;28;20359;-77
2023/09/29 01:41:14;;;;;;;16.75;7.90;;;;;;;;;;2086028;28;20559;-77
2023/09/29 01:42:35;;;;;;;12.70;7.68;;;;;;;;;;2081096;28;20033;-77
2023/09/29 01:43:56;;;;;;;17.42;7.80;;;;;;;;;;2080206;28;20075;-77
2023/09/29 01:45:18;;;;;;;13.38;8.45;;;;;;;;;;2090589;28;20035;-77
2023/09/29 01:46:39;;;;;;;15.48;8.10;;;;;;;;;;2093347;28;20054;-77
2023/09/29 01:48:03;;;;;;;16.00;8.33;;;;;;;;;;2087326;28;20140;-77
2023/09/29 01:49:24;;;;;;;11.40;7.47;;;;;;;;;;2090405;28;20036;-77
2023/09/29 01:50:45;;;;;;;15.23;8.13;;;;;;;;;;2092156;28;20037;-77
2023/09/29 01:52:07;;;;;;;14.23;7.07;;;;;;;;;;2093733;28;20028;-77
2023/09/29 01:53:30;;;;;;;18.30;9.00;;;;;;;;;;2085518;28;20075;-76
2023/09/29 01:54:51;;;;;;;13.27;7.85;;;;;;;;;;2089363;28;21969;-76
2023/09/29 01:56:12;;;;;;;14.27;7.65;;;;;;;;;;2092850;28;20036;-77
2023/09/29 01:57:33;;;;;;;15.18;8.23;;;;;;;;;;2100524;28;20094;-77
2023/09/29 01:58:54;;;;;;;14.70;8.07;;;;;;;;;;2097037;28;20029;-78
2023/09/29 02:00:19;;;;;;;13.65;7.70;;;;;;;;;;2092190;28;20102;-77
2023/09/29 02:01:40;;;;;;;15.55;8.68;;;;;;;;;;2092610;28;20476;-77
2023/09/29 02:03:05;;;;;;;13.20;7.72;;;;;;;;;;2094071;28;20033;-77
2023/09/29 02:04:26;;;;;;;13.13;7.60;;;;;;;;;;2085526;28;20045;-76
2023/09/29 02:05:47;;;;;;;13.95;8.43;;;;;;;;;;2089549;28;20052;-77
2023/09/29 02:07:09;;;;;;;15.45;7.63;;;;;;;;;;2099821;28;20428;-76
2023/09/29 02:08:30;;;;;;;12.75;7.85;;;;;;;;;;2096826;28;20082;-77
2023/09/29 02:09:51;;;;;;;10.10;6.50;;;;;;;;;;2094810;28;20024;-77
2023/09/29 02:11:12;;;;;;;11.73;7.90;;;;;;;;;;2083459;28;20029;-77
2023/09/29 02:12:33;;;;;;;14.75;8.30;;;;;;;;;;2085032;28;20040;-77
2023/09/29 02:13:54;;;;;;;14.15;8.15;;;;;;;;;;2091802;28;20036;-77
2023/09/29 02:15:16;;;;;;;16.25;7.00;;;;;;;;;;2098306;28;20036;-76
2023/09/29 02:16:36;;;;;;;14.98;7.90;;;;;;;;;;2094021;28;20051;-76
2023/09/29 02:17:58;;;;;;;17.70;7.53;;;;;;;;;;2094220;28;20036;-75
2023/09/29 02:19:19;;;;;;;13.07;6.90;;;;;;;;;;2086451;28;20379;-76
2023/09/29 02:20:46;;;;;;;12.35;7.07;;;;;;;;;;2086834;28;20083;-77
2023/09/29 02:22:07;;;;;;;9.68;7.43;;;;;;;;;;2091096;28;20033;-76
2023/09/29 02:23:28;;;;;;;16.45;6.85;;;;;;;;;;2087531;28;20055;-77
2023/09/29 02:24:49;;;;;;;11.70;7.18;;;;;;;;;;2083014;28;20075;-76
2023/09/29 02:26:10;;;;;;;18.15;7.55;;;;;;;;;;2099495;28;20720;-76
2023/09/29 02:27:31;;;;;;;12.73;6.80;;;;;;;;;;2097128;28;20037;-76
2023/09/29 02:28:54;;;;;;;14.30;7.85;;;;;;;;;;2094237;28;20098;-76
2023/09/29 02:30:15;;;;;;;17.05;6.93;;;;;;;;;;2085482;28;20083;-75
2023/09/29 02:31:36;;;;;;;10.93;7.25;;;;;;;;;;2083038;28;20021;-76
2023/09/29 02:32:57;;;;;;;10.30;6.82;;;;;;;;;;2083652;28;20075;-76
2023/09/29 02:34:18;;;;;;;11.68;7.55;;;;;;;;;;2092161;28;20833;-76
2023/09/29 02:35:39;;;;;;;18.08;7.30;;;;;;;;;;2092921;28;20059;-76
2023/09/29 02:36:59;;;;;;;11.07;6.47;;;;;;;;;;2095130;28;20033;-76
2023/09/29 02:38:20;;;;;;;8.48;6.05;;;;;;;;;;2095438;28;20039;-75
2023/09/29 02:39:41;;;;;;;11.65;6.88;;;;;;;;;;2094105;28;20097;-76
2023/09/29 02:41:03;;;;;;;10.07;6.40;;;;;;;;;;2095231;28;20041;-75
2023/09/29 02:42:24;;;;;;;;;;;;;;;;;;2087455;28;20029;-76
2023/09/29 02:43:46;;;;;;;9.95;7.63;;;;;;;;;;2090937;28;19908;-76
2023/09/29 02:45:07;;;;;;;14.20;6.90;;;;;;;;;;2092000;28;20037;-76
2023/09/29 02:46:28;;;;;;;9.80;6.28;;;;;;;;;;2087925;28;20029;-76
2023/09/29 02:47:49;;;;;;;9.57;6.07;;;;;;;;;;2095274;28;20028;-77
2023/09/29 02:49:10;;;;;;;14.40;6.88;;;;;;;;;;2090977;28;20033;-76
2023/09/29 02:50:34;;;;;;;14.18;6.53;;;;;;;;;;2093713;28;20029;-76
2023/09/29 02:51:55;;;;;;;16.17;6.53;;;;;;;;;;2096205;28;20024;-74
2023/09/29 02:53:16;;;;;;;9.25;6.50;;;;;;;;;;2099071;28;20036;-74
2023/09/29 02:54:37;;;;;;;9.15;6.38;;;;;;;;;;2088807;28;20083;-74
2023/09/29 02:55:59;;;;;;;13.63;6.00;;;;;;;;;;2088358;28;20025;-76
2023/09/29 02:57:21;;;;;;;10.05;5.38;;;;;;;;;;2091503;28;20412;-76
2023/09/29 02:58:41;;;;;;;13.05;6.25;;;;;;;;;;2096077;28;20567;-76
2023/09/29 03:00:22;;;;;;;13.93;6.93;;;;;;;;;;2097953;28;20029;-75
2023/09/29 03:01:44;;;;;;;14.48;5.43;;;;;;;;;;2098367;28;20364;-76
2023/09/29 03:03:05;;;;;;;8.13;5.85;;;;;;;;;;2089631;28;20029;-76
2023/09/29 03:04:26;;;;;;;12.73;6.20;;;;;;;;;;2093968;28;20553;-75
2023/09/29 03:05:47;;;;;;;10.32;6.28;;;;;;;;;;2098340;28;20028;-75
2023/09/29 03:07:09;;;;;;;13.82;5.85;;;;;;;;;;2099445;28;20082;-76
2023/09/29 03:08:31;;;;;;;10.15;5.90;;;;;;;;;;2097416;28;20028;-76
2023/09/29 03:09:55;;;;;;;11.48;5.82;;;;;;;;;;2081837;28;20033;-76
2023/09/29 03:11:16;;;;;;;8.13;5.70;;;;;;;;;;2090534;28;20024;-76
2023/09/29 03:12:38;;;;;;;10.82;5.57;;;;;;;;;;2098770;28;20385;-77
2023/09/29 03:13:59;;;;;;;12.68;6.40;;;;;;;;;;2083511;28;20453;-76
2023/09/29 03:15:21;;;;;;;16.05;6.95;;;;;;;;;;2083695;28;20033;-76
2023/09/29 03:16:42;;;;;;;9.90;6.18;;;;;;;;;;2084467;28;20013;-76
2023/09/29 03:18:05;;;;;;;13.65;6.35;;;;;;;;;;2091885;28;20025;-76
2023/09/29 03:19:26;;;;;;;11.70;6.25;;;;;;;;;;2092853;28;20033;-77
2023/09/29 03:20:48;;;;;;;12.73;6.97;;;;;;;;;;2086279;28;20029;-75
2023/09/29 03:22:13;;;;;;;12.68;6.82;;;;;;;;;;2091987;28;20479;-75
2023/09/29 03:23:34;;;;;;;11.18;6.38;;;;;;;;;;2087285;28;20036;-75
2023/09/29 03:24:55;;;;;;;12.35;6.47;;;;;;;;;;2086749;28;20082;-74
2023/09/29 03:26:17;;;;;;;11.32;7.00;;;;;;;;;;2086809;28;20048;-75
2023/09/29 03:27:39;;;;;;;10.35;5.95;;;;;;;;;;2084260;28;20547;-74
2023/09/29 03:29:00;;;;;;;11.00;5.90;;;;;;;;;;2085712;28;20029;-73
2023/09/29 03:30:21;;;;;;;11.95;6.57;;;;;;;;;;2085622;28;20029;-74
2023/09/29 03:31:42;;;;;;;14.32;6.95;;;;;;;;;;2083286;28;20041;-74
2023/09/29 03:33:03;;;;;;;9.48;5.35;;;;;;;;;;2085443;28;20589;-74
2023/09/29 03:34:24;;;;;;;12.57;5.32;;;;;;;;;;2092973;28;20040;-74
2023/09/29 03:35:47;;;;;;;9.57;5.63;;;;;;;;;;2087149;28;20049;-74
2023/09/29 03:37:08;;;;;;;14.15;6.55;;;;;;;;;;2090095;28;20033;-74
2023/09/29 03:38:29;;;;;;;12.20;5.88;;;;;;;;;;2085970;28;20029;-74
2023/09/29 03:39:50;;;;;;;11.65;6.22;;;;;;;;;;2086586;28;20037;-74
2023/09/29 03:41:11;;;;;;;8.05;6.15;;;;;;;;;;2092567;28;20063;-73
2023/09/29 03:42:33;;;;;;;11.02;6.70;;;;;;;;;;2093208;28;20032;-74
2023/09/29 03:43:54;;;;;;;12.80;6.50;;;;;;;;;;2102593;28;20053;-74
2023/09/29 03:45:15;;;;;;;13.52;7.07;;;;;;;;;;2078668;28;20048;-75
2023/09/29 03:46:36;;;;;;;11.52;5.50;;;;;;;;;;2089292;28;20032;-74
2023/09/29 03:47:56;;;;;;;8.48;5.20;;;;;;;;;;2085321;28;20040;-75
2023/09/29 03:49:19;;;;;;;9.52;5.82;;;;;;;;;;2081348;28;20037;-74
2023/09/29 03:50:40;;;;;;;9.25;6.68;;;;;;;;;;2090462;28;20070;-74
2023/09/29 03:52:01;;;;;;;10.25;6.03;;;;;;;;;;2087422;28;20025;-74
2023/09/29 03:53:22;;;;;;;8.98;7.00;;;;;;;;;;2085111;28;20527;-74
2023/09/29 03:54:43;;;;;;;24.25;7.38;;;;;;;;;;2097454;28;20041;-75
2023/09/29 03:56:04;;;;;;;13.32;7.53;;;;;;;;;;2090947;28;20606;-74
2023/09/29 03:57:25;;;;;;;9.48;5.53;;;;;;;;;;2082361;28;20037;-75
2023/09/29 03:58:46;;;;;;;9.73;5.75;;;;;;;;;;2085699;28;20582;-74
2023/09/29 04:00:12;;;;;;;10.65;6.43;;;;;;;;;;2091508;28;20056;-76
2023/09/29 04:01:34;;;;;;;10.15;5.90;;;;;;;;;;2093673;28;20553;-76
2023/09/29 04:02:57;;;;;;;;;;;;;;;;;;2087708;28;20037;-74
2023/09/29 04:04:18;;;;;;;8.77;5.88;;;;;;;;;;2088782;28;19927;-74
2023/09/29 04:05:39;;;;;;;23.65;7.38;;;;;;;;;;2086070;28;20040;-73
2023/09/29 04:07:00;;;;;;;12.27;6.45;;;;;;;;;;2090981;28;20459;-73
2023/09/29 04:08:21;;;;;;;11.50;6.18;;;;;;;;;;2095045;28;20036;-74
2023/09/29 04:09:42;;;;;;;9.40;5.60;;;;;;;;;;2087263;28;20079;-74
2023/09/29 04:11:03;;;;;;;8.93;6.25;;;;;;;;;;2090159;28;20102;-75
2023/09/29 04:12:24;;;;;;;9.50;5.75;;;;;;;;;;2090977;28;20534;-74
2023/09/29 04:13:45;;;;;;;11.43;5.93;;;;;;;;;;2094063;28;20041;-74
2023/09/29 04:15:07;;;;;;;9.52;5.80;;;;;;;;;;2085439;28;20101;-75
2023/09/29 04:16:28;;;;;;;10.25;6.35;;;;;;;;;;2081845;28;20065;-74
2023/09/29 04:17:49;;;;;;;8.13;6.03;;;;;;;;;;2093922;28;20025;-74
2023/09/29 04:19:12;;;;;;;11.15;6.45;;;;;;;;;;2092340;28;21671;-76
2023/09/29 04:20:33;;;;;;;9.98;5.38;;;;;;;;;;2084781;28;20041;-74
2023/09/29 04:21:54;;;;;;;9.50;5.82;;;;;;;;;;2085069;28;20546;-74
2023/09/29 04:23:15;;;;;;;8.60;7.07;;;;;;;;;;2083830;28;20044;-73
2023/09/29 04:24:37;;;;;;;10.27;6.10;;;;;;;;;;2090115;28;20206;-73
2023/09/29 04:25:58;;;;;;;13.10;6.95;;;;;;;;;;2092830;28;20437;-74
2023/09/29 04:27:19;;;;;;;8.70;6.47;;;;;;;;;;2086758;28;20033;-75
2023/09/29 04:28:40;;;;;;;10.45;5.47;;;;;;;;;;2088832;28;20366;-74
2023/09/29 04:30:05;;;;;;;14.80;7.13;;;;;;;;;;2085910;28;20094;-75
2023/09/29 04:31:26;;;;;;;9.25;5.72;;;;;;;;;;2099319;28;20029;-74
2023/09/29 04:32:47;;;;;;;9.98;6.40;;;;;;;;;;2096355;28;20021;-75
2023/09/29 04:34:08;;;;;;;9.02;5.75;;;;;;;;;;2094095;28;20032;-73
2023/09/29 04:35:29;;;;;;;9.15;5.57;;;;;;;;;;2085736;28;20530;-76
2023/09/29 04:36:50;;;;;;;9.15;6.07;;;;;;;;;;2081770;28;20033;-76
2023/09/29 04:38:11;;;;;;;9.93;5.68;;;;;;;;;;2092638;28;20028;-77
2023/09/29 04:39:32;;;;;;;15.10;6.72;;;;;;;;;;2084086;28;20087;-76
2023/09/29 04:40:53;;;;;;;8.77;6.30;;;;;;;;;;2090588;28;20033;-76
2023/09/29 04:42:14;;;;;;;9.38;6.28;;;;;;;;;;2094167;28;20083;-76
2023/09/29 04:43:35;;;;;;;7.82;6.00;;;;;;;;;;2095940;28;20503;-76
2023/09/29 04:44:56;;;;;;;9.02;5.80;;;;;;;;;;2086455;28;20045;-76
2023/09/29 04:46:17;;;;;;;9.93;5.00;;;;;;;;;;2093869;28;20433;-76
2023/09/29 04:47:38;;;;;;;9.77;5.22;;;;;;;;;;2087456;28;20056;-76
2023/09/29 04:49:00;;;;;;;10.32;5.50;;;;;;;;;;2089986;28;20028;-76
2023/09/29 04:50:21;;;;;;;9.15;5.80;;;;;;;;;;2093739;28;20020;-76
2023/09/29 04:51:43;;;;;;;10.32;6.72;;;;;;;;;;2088329;28;20028;-76
2023/09/29 04:53:04;;;;;;;8.70;5.20;;;;;;;;;;2092681;28;20024;-77
2023/09/29 04:54:25;;;;;;;8.32;5.63;;;;;;;;;;2098313;28;20031;-77
2023/09/29 04:55:46;;;;;;;9.98;6.10;;;;;;;;;;2087069;28;20148;-77
2023/09/29 04:57:07;;;;;;;9.93;5.85;;;;;;;;;;2091776;28;20043;-77
2023/09/29 04:58:28;;;;;;;9.50;4.90;;;;;;;;;;2093281;28;20036;-77
2023/09/29 04:59:50;;;;;;;8.77;5.10;;;;;;;;;;2089012;28;20092;-77
2023/09/29 05:01:16;;;;;;;11.07;5.88;;;;;;;;;;2083181;28;20725;-77
2023/09/29 05:02:37;;;;;;;11.55;6.13;;;;;;;;;;2092326;28;20032;-77
2023/09/29 05:03:58;;;;;;;7.55;5.50;;;;;;;;;;2085856;28;20029;-76
2023/09/29 05:05:18;;;;;;;9.35;6.28;;;;;;;;;;2084824;28;20037;-75
2023/09/29 05:06:39;;;;;;;10.25;5.90;;;;;;;;;;2079643;28;20087;-75
2023/09/29 05:08:00;;;;;;;9.85;6.78;;;;;;;;;;2089974;28;20116;-76
2023/09/29 05:09:21;;;;;;;13.02;5.95;;;;;;;;;;2096765;28;20025;-77
2023/09/29 05:10:43;;;;;;;8.20;5.20;;;;;;;;;;2095993;28;20020;-77
2023/09/29 05:12:04;;;;;;;10.88;6.78;;;;;;;;;;2094166;28;20032;-77
2023/09/29 05:13:28;;;;;;;6.32;5.13;;;;;;;;;;2096029;28;20043;-76
2023/09/29 05:14:49;;;;;;;10.50;6.20;;;;;;;;;;2083944;28;20084;-76
2023/09/29 05:16:10;;;;;;;12.73;6.50;;;;;;;;;;2082043;28;21616;-77
2023/09/29 05:17:31;;;;;;;8.82;5.72;;;;;;;;;;2082583;28;20033;-78
2023/09/29 05:18:53;;;;;;;8.80;5.55;;;;;;;;;;2087131;28;20033;-78
2023/09/29 05:20:14;;;;;;;;;;;;;;;;;;2085596;28;20074;-77
2023/09/29 05:21:36;;;;;;;8.95;6.63;;;;;;;;;;2098552;28;19978;-75
2023/09/29 05:22:57;;;;;;;9.40;5.80;;;;;;;;;;2095987;28;20024;-78
2023/09/29 05:24:18;;;;;;;10.95;7.13;;;;;;;;;;2083492;28;20551;-77
2023/09/29 05:25:43;;;;;;;8.82;5.97;;;;;;;;;;2082361;28;20067;-78
2023/09/29 05:27:04;;;;;;;8.15;5.78;;;;;;;;;;2091884;28;20412;-78
2023/09/29 05:28:24;;;;;;;12.02;6.75;;;;;;;;;;2093706;28;20036;-76
2023/09/29 05:29:45;;;;;;;9.77;7.00;;;;;;;;;;2086895;28;20388;-77
2023/09/29 05:31:06;;;;;;;12.75;6.07;;;;;;;;;;2081694;28;20045;-77
2023/09/29 05:32:28;;;;;;;12.57;6.25;;;;;;;;;;2098045;28;20065;-76
2023/09/29 05:33:49;;;;;;;13.93;6.33;;;;;;;;;;2098211;28;20059;-77
2023/09/29 05:35:10;;;;;;;10.20;6.30;;;;;;;;;;2086467;28;20451;-74
2023/09/29 05:36:30;;;;;;;12.40;6.65;;;;;;;;;;2080676;28;20075;-74
2023/09/29 05:37:51;;;;;;;12.23;6.57;;;;;;;;;;2091866;28;20511;-78
2023/09/29 05:39:13;;;;;;;9.63;6.13;;;;;;;;;;2086515;28;20090;-77
2023/09/29 05:40:34;;;;;;;12.48;6.47;;;;;;;;;;2083436;28;20041;-77
2023/09/29 05:41:54;;;;;;;11.60;6.22;;;;;;;;;;2082588;28;20508;-77
2023/09/29 05:43:15;;;;;;;11.93;6.80;;;;;;;;;;2085579;28;20094;-76
2023/09/29 05:44:36;;;;;;;11.02;6.85;;;;;;;;;;2092130;28;20059;-76
2023/09/29 05:45:58;;;;;;;9.80;6.40;;;;;;;;;;2086078;28;20488;-77
2023/09/29 05:47:20;;;;;;;12.00;5.55;;;;;;;;;;2086771;28;20103;-78
2023/09/29 05:48:41;;;;;;;11.18;7.65;;;;;;;;;;2083987;28;20021;-76
2023/09/29 05:50:02;;;;;;;9.18;5.70;;;;;;;;;;2085544;28;20033;-77
2023/09/29 05:51:22;;;;;;;9.60;5.82;;;;;;;;;;2090677;28;20032;-76
2023/09/29 05:52:43;;;;;;;11.98;6.20;;;;;;;;;;2093302;28;20028;-77
2023/09/29 05:54:04;;;;;;;12.30;6.53;;;;;;;;;;2085352;28;20037;-76
2023/09/29 05:55:26;;;;;;;12.52;6.30;;;;;;;;;;2091881;28;20573;-77
2023/09/29 05:56:47;;;;;;;9.43;6.80;;;;;;;;;;2091236;28;20037;-77
2023/09/29 05:58:08;;;;;;;8.82;6.10;;;;;;;;;;2087369;28;20041;-77
2023/09/29 05:59:29;;;;;;;12.07;7.13;;;;;;;;;;2090069;28;20096;-77
2023/09/29 06:00:50;;;;;;;10.60;6.03;;;;;;;;;;2093073;28;20032;-76
2023/09/29 06:02:11;;;;;;;10.23;6.28;;;;;;;;;;2103829;28;20032;-77
2023/09/29 06:03:31;;;;;;;9.57;6.07;;;;;;;;;;2087216;28;20406;-77
2023/09/29 06:04:52;;;;;;;11.38;6.53;;;;;;;;;;2089781;28;20036;-78
2023/09/29 06:06:13;;;;;;;10.40;6.35;;;;;;;;;;2085601;28;20151;-77
2023/09/29 06:07:34;;;;;;;9.50;5.88;;;;;;;;;;2087681;28;20431;-78
2023/09/29 06:08:55;;;;;;;9.90;5.90;;;;;;;;;;2085661;28;20144;-77
2023/09/29 06:10:16;;;;;;;10.02;5.75;;;;;;;;;;2093685;28;20024;-78
2023/09/29 06:11:37;;;;;;;7.20;5.55;;;;;;;;;;2085598;28;20457;-77
2023/09/29 06:12:59;;;;;;;11.35;7.13;;;;;;;;;;2097615;28;20024;-77
2023/09/29 06:14:20;;;;;;;9.43;5.88;;;;;;;;;;2095059;28;20036;-76
2023/09/29 06:15:41;;;;;;;16.13;6.43;;;;;;;;;;2094449;28;20037;-78
2023/09/29 06:17:02;;;;;;;9.50;6.10;;;;;;;;;;2084944;28;20481;-77
2023/09/29 06:18:23;;;;;;;8.68;6.43;;;;;;;;;;2083552;28;20095;-77
2023/09/29 06:19:44;;;;;;;9.55;5.97;;;;;;;;;;2085168;28;20041;-76
2023/09/29 06:21:05;;;;;;;12.05;6.75;;;;;;;;;;2090973;28;20573;-77
2023/09/29 06:22:26;;;;;;;11.85;6.32;;;;;;;;;;2095329;28;20044;-77
2023/09/29 06:23:47;;;;;;;12.70;6.88;;;;;;;;;;2085249;28;20033;-77
2023/09/29 06:25:09;;;;;;;12.65;6.10;;;;;;;;;;2080036;28;20029;-76
2023/09/29 06:26:30;;;;;;;9.68;5.97;;;;;;;;;;2090859;28;20523;-78
2023/09/29 06:27:51;;;;;;;10.70;6.38;;;;;;;;;;2087317;28;20053;-77
2023/09/29 06:29:12;;;;;;;9.43;5.60;;;;;;;;;;2092423;28;20024;-77
2023/09/29 06:30:33;;;;;;;7.53;5.25;;;;;;;;;;2086611;28;20512;-78
2023/09/29 06:31:54;;;;;;;10.82;6.53;;;;;;;;;;2091639;28;20074;-78
2023/09/29 06:33:15;;;;;;;9.77;6.13;;;;;;;;;;2085731;28;20033;-77
2023/09/29 06:34:36;;;;;;;8.98;5.68;;;;;;;;;;2092559;28;20032;-76
2023/09/29 06:35:57;;;;;;;9.10;6.50;;;;;;;;;;2091869;28;20101;-78
2023/09/29 06:37:18;;;;;;;8.60;5.35;;;;;;;;;;2093210;28;20504;-78
2023/09/29 06:38:40;;;;;;;9.25;5.10;;;;;;;;;;2094515;28;20377;-78
2023/09/29 06:40:01;;;;;;;8.63;5.40;;;;;;;;;;2092503;28;20036;-77
2023/09/29 06:41:23;;;;;;;7.63;5.22;;;;;;;;;;2093256;28;20153;-78
2023/09/29 06:42:44;;;;;;;11.23;5.85;;;;;;;;;;2092326;28;20036;-78
2023/09/29 06:44:04;;;;;;;10.32;6.10;;;;;;;;;;2086527;28;20040;-77
2023/09/29 06:45:29;;;;;;;7.30;4.85;;;;;;;;;;2083487;28;20048;-78
2023/09/29 06:46:50;;;;;;;13.23;5.55;;;;;;;;;;2094561;28;20496;-78
2023/09/29 06:48:11;;;;;;;11.77;5.18;;;;;;;;;;2095342;28;20455;-75
2023/09/29 06:49:32;;;;;;;9.27;5.00;;;;;;;;;;2087769;28;20021;-76
2023/09/29 06:50:58;;;;;;;10.07;4.93;;;;;;;;;;2092650;28;20029;-76
2023/09/29 06:52:19;;;;;;;8.27;4.57;;;;;;;;;;2096416;28;20131;-78
2023/09/29 06:53:40;;;;;;;7.38;4.95;;;;;;;;;;2096291;28;20036;-78
2023/09/29 06:55:01;;;;;;;9.55;5.30;;;;;;;;;;2084721;28;20025;-78
2023/09/29 06:56:22;;;;;;;6.75;5.07;;;;;;;;;;2085402;28;20037;-78
2023/09/29 06:57:43;;;;;;;7.18;4.53;;;;;;;;;;2085374;28;20025;-79
2023/09/29 06:59:03;;;;;;;7.07;4.60;;;;;;;;;;2087904;28;20401;-78
2023/09/29 07:00:25;;;;;;;7.80;5.00;;;;;;;;;;2096084;28;20032;-78
2023/09/29 07:01:45;;;;;;;11.10;5.65;;;;;;;;;;2094661;28;20400;-78
2023/09/29 07:03:12;;;;;;;10.80;5.50;;;;;;;;;;2092442;28;20392;-78
2023/09/29 07:04:33;;;;;;;7.90;5.38;;;;;;;;;;2090104;28;20473;-77
2023/09/29 07:05:54;;;;;;;7.32;5.00;;;;;;;;;;2091273;28;20036;-78
2023/09/29 07:07:15;;;;;;;8.23;5.22;;;;;;;;;;2094514;28;20021;-75
2023/09/29 07:08:36;;;;;;;8.18;4.75;;;;;;;;;;2090774;28;20041;-75
2023/09/29 07:09:57;;;;;;;7.90;4.72;;;;;;;;;;2094499;28;20029;-77
2023/09/29 07:11:18;;;;;;;9.05;5.75;;;;;;;;;;2096655;28;20064;-76
2023/09/29 07:12:39;;;;;;;8.45;4.75;;;;;;;;;;2088476;28;20036;-78
2023/09/29 07:14:00;;;;;;;12.32;6.07;;;;;;;;;;2088024;28;20021;-76
2023/09/29 07:15:21;;;;;;;8.15;5.20;;;;;;;;;;2096934;28;20032;-75
2023/09/29 07:16:43;;;;;;;11.43;5.32;;;;;;;;;;2097142;28;20028;-76
2023/09/29 07:18:04;;;;;;;;;;;;;;;;;;2099186;28;20031;-76
2023/09/29 07:19:25;;;;;;;10.02;5.72;;;;;;;;;;2098079;28;20359;-76
2023/09/29 07:20:46;;;;;;;9.40;5.43;;;;;;;;;;2088766;28;20113;-77
2023/09/29 07:22:07;;;;;;;9.80;5.55;;;;;;;;;;2086312;28;20447;-77
2023/09/29 07:23:30;;;;;;;10.07;5.43;;;;;;;;;;2086249;28;20036;-75
2023/09/29 07:24:54;;;;;;;10.98;6.65;;;;;;;;;;2092617;28;20055;-77
2023/09/29 07:26:15;;;;;;;10.15;6.07;;;;;;;;;;2096781;28;20037;-78
2023/09/29 07:27:36;;;;;;;10.32;6.53;;;;;;;;;;2089352;28;20037;-77
2023/09/29 07:29:01;;;;;;;8.13;5.38;;;;;;;;;;2087884;28;20036;-78
2023/09/29 07:30:22;;;;;;;8.43;5.60;;;;;;;;;;2088408;28;20496;-77
2023/09/29 07:31:46;;;;;;;7.22;5.47;;;;;;;;;;2094796;28;20036;-77
2023/09/29 07:33:07;;;;;;;9.35;5.50;;;;;;;;;;2089928;28;20025;-78
2023/09/29 07:34:30;;;;;;;11.15;5.95;;;;;;;;;;2085468;28;20067;-77
2023/09/29 07:35:51;;;;;;;12.02;6.65;;;;;;;;;;2083322;28;20105;-75
2023/09/29 07:37:12;;;;;;;9.80;6.75;;;;;;;;;;2091145;28;20442;-75
2023/09/29 07:38:33;;;;;;;9.20;5.70;;;;;;;;;;2086745;28;20059;-75
2023/09/29 07:39:53;;;;;;;9.20;5.43;;;;;;;;;;2090664;28;20033;-78
2023/09/29 07:41:14;;;;;;;9.27;5.95;;;;;;;;;;2085953;28;20041;-77
2023/09/29 07:42:35;;;;;;;8.23;5.28;;;;;;;;;;2095440;28;20037;-77
2023/09/29 07:43:59;;;;;;;7.90;5.85;;;;;;;;;;2088092;28;20036;-77
2023/09/29 07:45:20;;;;;;;10.30;5.88;;;;;;;;;;2095474;28;20036;-78
2023/09/29 07:46:41;;;;;;;10.17;5.33;;;;;;;;;;2097598;28;20400;-79
2023/09/29 07:48:03;;;;;;;9.60;5.55;;;;;;;;;;2100018;28;20457;-78
2023/09/29 07:49:24;;;;;;;8.38;5.57;;;;;;;;;;2094798;28;20033;-81
2023/09/29 07:50:45;;;;;;;8.85;4.57;;;;;;;;;;2089813;28;20076;-77
2023/09/29 07:52:09;;;;;;;8.68;5.18;;;;;;;;;;2097479;28;20381;-80
2023/09/29 07:53:30;;;;;;;8.82;5.13;;;;;;;;;;2097368;28;20473;-76
2023/09/29 07:54:51;;;;;;;5.95;4.15;;;;;;;;;;2097885;28;20029;-77
2023/09/29 07:56:12;;;;;;;8.93;5.00;;;;;;;;;;2097497;28;20036;-78
2023/09/29 07:57:33;;;;;;;9.68;4.90;;;;;;;;;;2095278;28;20032;-81
2023/09/29 07:58:54;;;;;;;7.00;5.18;;;;;;;;;;2094932;28;20396;-82
2023/09/29 08:00:16;;;;;;;6.18;4.53;;;;;;;;;;2091462;28;20417;-77
2023/09/29 08:01:37;;;;;;;10.65;5.03;;;;;;;;;;2093130;28;20032;-80
2023/09/29 08:02:58;;;;;;;7.47;4.70;;;;;;;;;;2084019;28;20033;-76
2023/09/29 08:04:19;;;;;;;8.00;4.30;;;;;;;;;;2083557;28;20107;-77